X  Tanca Dades meteorològiques de l'aviació METAR     LEVC Valencia Airport
Temperatura
11°C Temperatura
4°C Rosada
62% Humitat



Vent
5 KM/H
3 MPH
1 M/S
3 NUS



90°
Est
Condicions actuals

Majoritàriament núvols dispersos Majoritàriament núvols dispersos
Pressió 1027.92 (hPa) - 30.35 (inHg)
Visibilitat 6.2 (milla) - 10 (km)
Aeroport
Codi aeroport LEVC

Ubicació: Valencia Airport
Distància: 60 (km)

Metar:
LEVC 231200Z 09003KT 030V140 9999 SCT040 BKN050 11/04 Q1028 NOSIG

Temps: 23-01-2022 13:00 CET